Startpagina
METAR-TAF:

METAR-TAF

Vliegvelden :

Internationale luchthaven Koning Abdoel Aziz

Djedda, Saoedi-Arabië

breedte: 21-42N, lengte: 039-11E, hoogte: 15 m

Actueel weer

Dit bericht is 9 minuten geleden gemaakt, om 13:00 UTC
Wind 13 kt uit het zuidzuidwesten
Temperatuur 34°C
Vochtigheid 47%
Druk 1005 hPa
Zicht 10 km of meer
Weinig wolken op 4000 ft

METAR: OEJN 211300Z 21013KT 9999 FEW040 34/21 Q1005 NOSIG

Tijdstip: 16:09 (13:09 UTC)

Verwachting

Dit bericht is 2 uur en het 9 minuten geleden gemaakt, om 11:00 UTC
Verwachting geldig van 21 om 12 UTC tot 22 om 18 UTC
Wind 8 kt uit het westzuidwesten met uitschieters tot 18 kt
Zicht: 6000 m
Verspreide wolken op 4000 ft
Tijdelijke
van 21 om 12 UTC tot 21 om 18 UTC
Zicht: 3000 m
Weinig wolken op 3500 ft, Cumulonimbus.
Gebroken wolken op 4000 ft
Stuifstof, onweer
Wijzigt naar
van 21 om 18 UTC tot 21 om 20 UTC
Wind 10 kt uit het noorden

TAF: OEJN 211100Z 2112/2218 24008G18KT 6000 SCT040 TEMPO 2112/2118 3000 BLDU TS FEW035CB BKN040 BECMG 2118/2120 36010KT

Waarnemingen en weersverwachtingen van meer dan 4000 vliegvelden (METAR en TAF).

De beschikbare stations zijn de gele en rode punten op de kaart.

Ga met uw muis naar het station om de naam te zien.

Klik dan om waarnemingen en weersverwachtingen te zien.

kaart wijzigen: klik op de groene knoppen met een zwart kruis om in te zoomen, op de groene knop met een streepje om uit te zoomen of op de groene pijlen voor aangrenzende kaarten.


METAR-TAF: